Tiempo atmosférico en la estación meteorológica de Cádiz, Cadiz (1 m.)



Fecha
DESCASC
Temp. máxima en grados centígrados (hora)
DESCASC
Temp. mínima en grados centígrados (hora)
DESCASC
Temp. media en grados centígrados
DESCASC
Racha de viento máxima en m/sg (hora)
DESCASC
Velocidad máxima media en intervalos de 10 minutos(hora)
DESCASC
Precipitaciones diarias en mm
DESCASC
Precipitaciones de 00:00 a 06:00 en mm
DESCASC
Precipitaciones de 06:00 a 12:00 en mm
DESCASC
Precipitaciones de 12:00 a 18:00 en mm
DESCASC
Precipitaciones de 18:00 a 24:00 en mm
DESCASC
14-07-2019 24.5 (16:20) 20.9 (00:00) 22.7 8.33 (15:20) 5.56 (15:30) 0 0 0 0 0
13-07-2019 25.7 (16:30) 20.5 (00:00) 23.1 7.5 (16:50) 4.17 (17:10) 0 0 0 0 0
12-07-2019 25.4 (15:30) 21.3 (00:00) 23.3 7.78 (00:40) 5.83 (00:10) 0 0 0 0 0
11-07-2019 32.2 (16:50) 22.1 (00:00) 27.2 14.44 (16:10) 11.67 (16:10) 0 0 0 0 0
10-07-2019 28.5 (21:40) 19.6 (00:00) 24.1 9.17 (21:20) 7.22 (21:30) 0 0 0 0 0
09-07-2019 24.4 (16:20) 20.1 (00:00) 22.3 7.78 (00:20) 5 (00:10) 0 0 0 0 0
08-07-2019 24.4 (15:50) 19.6 (00:00) 22 10.28 (20:50) 6.94 (20:40) 0 0 0 0 0
07-07-2019 24.5 (15:50) 20.5 (00:00) 22.5 9.72 (19:00) 5.83 (18:00) 0 0 0 0 0
06-07-2019 24.4 (16:10) 19.6 (00:00) 22 9.72 (18:10) 6.39 (18:10) 0 0 0 0 0
05-07-2019 24 (14:30) 19.8 (00:00) 21.9 9.17 (14:10) 5.83 (14:40) 0 0 0 0 0
04-07-2019 24.1 (14:40) 19.2 (00:00) 21.7 7.5 (17:50) 5 (19:00) 0 0 0 0 0
03-07-2019 24.2 (14:30) 19.7 (00:00) 22 9.17 (07:20) 6.11 (08:30) 0 0 0 0 0
02-07-2019 24.5 (18:40) 20.1 (07:50) 22.3 7.22 (11:20) 4.72 (13:20) 0 0 0 0 0
01-07-2019 24.6 (18:20) 20.5 (07:20) 22.6 7.22 (20:00) 4.72 (17:30) 0 0 0 0 0
30-06-2019 23.9 (17:10) 21.2 (00:00) 22.6 7.78 (05:00) 5 (05:00) 0 0 0 0 0
29-06-2019 26 (18:50) 21.2 (00:00) 23.6 8.89 (02:20) 6.67 (02:20) 0 0 0 0 0
28-06-2019 28.4 (12:00) 20.5 (00:00) 24.4 7.78 (18:00) 5 (15:50) 0 0 0 0 0
27-06-2019 23.4 (18:20) 19.8 (00:00) 21.6 8.89 (18:50) 5.83 (20:00) 0 0 0 0 0
26-06-2019 25.4 (16:10) 20.2 (00:00) 22.8 7.22 (15:10) 4.72 (15:10) 0 0 0 0 0
25-06-2019 25.1 (16:20) 19.7 (00:00) 22.4 8.06 (18:20) 5.83 (18:10) 0 0 0 0 0
24-06-2019 24.5 (16:40) 20 (00:00) 22.3 6.39 (17:40) 3.89 (16:50) 0 0 0 0 0
23-06-2019 24.2 (14:50) 20 (00:00) 22.1 7.22 (15:30) 5.28 (08:00) 0 0 0 0 0
22-06-2019 24.7 (18:50) 18.5 (00:00) 21.6 10 (09:20) 6.67 (09:20) 0 0 0 0 0
21-06-2019 22.6 (18:10) 18.5 (00:00) 20.6 9.72 (03:30) 5.56 (02:40) 0 0 0 0 0
20-06-2019 23.3 (14:40) 19.2 (00:00) 21.3 8.61 (17:20) 5.56 (16:20) 0 0 0 0 0
19-06-2019 23.7 (16:20) 19 (00:00) 21.4 9.44 (19:10) 6.39 (19:10) 0 0 0 0 0
18-06-2019 23.3 (14:50) 17.6 (00:00) 20.4 6.67 (18:20) 4.17 (17:50) 0 0 0 0 0
17-06-2019 22.6 (15:50) 17.3 (00:00) 19.9 8.61 (18:10) 5.28 (14:40) 0 0 0 0 0
16-06-2019 23.1 (16:20) 17.5 (00:00) 20.3 8.89 (17:10) 5.83 (16:40) 0 0 0 0 0

Gráficas

Temp. máximas Temp. mínimas Temp. medias Precipitaciones Rachas de viento máximas Velocidades máximas media en intervalos de 10 minutos

Datos horarios

Fecha y hora oficial Temperatura (ºC) Velocidad del viento (km/h) Dirección del viento Racha (km/h) Dirección de racha Precipitación (mm) Presión (hPa) Tendencia (hPa) Humedad (%)
2019-07-15 23:00:00 21.3 4 Oeste 9 Sudoeste 0 1013.4 0.5 82
2019-07-15 22:00:00 21.7 5 Sudoeste 12 Sudoeste 0 1013 -0.1 78
2019-07-15 21:00:00 23.1 6 Sudoeste 18 Oeste 0 1012.9 -0.6 70
2019-07-15 20:00:00 23.2 10 Sudoeste 20 Sudoeste 0 1012.9 -0.9 68
2019-07-15 19:00:00 23.9 12 Sudoeste 21 Sudoeste 0 1013.1 -1.2 65
2019-07-15 18:00:00 24.2 10 Sudoeste 22 Sudoeste 0 1013.5 -1.2 65
2019-07-15 17:00:00 24.2 12 Sudoeste 23 Sudoeste 0 1013.8 -1.4 65
2019-07-15 16:00:00 23.5 13 Sudoeste 24 Sudoeste 0 1014.3 -1 65
2019-07-15 15:00:00 24.2 13 Sudoeste 23 Sur 0 1014.7 -0.3 65
2019-07-15 14:00:00 23.1 13 Sur 22 Sudoeste 0 1015.2 0.5 69
2019-07-15 13:00:00 23.2 12 Sur 22 Sur 0 1015.3 0.6 73
2019-07-15 12:00:00 22.6 11 Sur 19 Sur 0 1015 0.7 76
2019-07-15 11:00:00 21.9 11 Sur 20 Sur 0 1014.7 0.8 80
2019-07-15 10:00:00 21.7 10 Sur 19 Sur 0 1014.7 1.2 81
2019-07-15 09:00:00 21.7 9 Sur 18 Sur 0 1014.3 0.9 83
2019-07-15 08:00:00 21.2 11 Sur 19 Sur 0 1013.9 0.5 86
2019-07-15 07:00:00 21.1 12 Sur 21 Sur 0 1013.5 -0.2 87
2019-07-15 06:00:00 21.4 10 Sur 23 Sur 0 1013.4 -0.7 87
2019-07-15 05:00:00 21.4 12 Sur 22 Sur 0 1013.4 -0.9 88
2019-07-15 04:00:00 21.3 11 Sur 20 Sur 0 1013.7 -0.7 89
2019-07-15 03:00:00 21.3 13 Sur 22 Sur 0 1014.1 -0.6 89
2019-07-15 02:00:00 21.5 11 Sur 18 Sur 0 1014.3 -0.4 87
2019-07-15 01:00:00 21.6 9 Sudoeste 13 Sudoeste 0 1014.4 0.2 85
2019-07-15 00:00:00 21.4 7 Sudoeste 16 Oeste 0 1014.7 0.6 84
2019-07-14 23:00:00 21.6 9 Oeste 18 Oeste 0 1014.7 0.5 84
2019-07-14 22:00:00 21.7 10 Oeste 23 Oeste 0 1014.2 -0.1 83
2019-07-14 21:00:00 22.3 15 Oeste 25 Sudoeste 0 1014.1 -0.5 78
2019-07-14 20:00:00 23.2 14 Oeste 24 Oeste 0 1014.2 -0.8 73
2019-07-14 19:00:00 24 16 Oeste 27 Sudoeste 0 1014.3 -1 69
2019-07-14 18:00:00 23.7 19 Sudoeste 27 Oeste 0 1014.6 -1 67
2019-07-14 17:00:00 24 17 Sudoeste 27 Sudoeste 0 1015 -1.2 64
2019-07-14 16:00:00 23.9 18 Oeste 30 Oeste 0 1015.3 -1 66
2019-07-14 15:00:00 24.2 19 Sudoeste 28 Sudoeste 0 1015.6 -0.6 65
2019-07-14 14:00:00 24 17 Sudoeste 24 Sudoeste 0 1016.2 0.2 64
2019-07-14 13:00:00 23.8 16 Sudoeste 24 Oeste 0 1016.3 0.5 65
2019-07-14 12:00:00 23.4 15 Sudoeste 23 Oeste 0 1016.2 0.7 69
2019-07-14 11:00:00 22.7 13 Sudoeste 21 Oeste 0 1016 0.9 74
2019-07-14 10:00:00 22.5 12 Sudoeste 18 Sudoeste 0 1015.8 1 78
2019-07-14 09:00:00 22.1 6 Oeste 13 Oeste 0 1015.5 1 83
2019-07-14 08:00:00 21.4 7 Noroeste 11 Oeste 0 1015.1 0.3 86
2019-07-14 07:00:00 21.1 9 Oeste 15 Oeste 0 1014.8 -0.3 87
2019-07-14 06:00:00 21.1 8 Oeste 13 Oeste 0 1014.5 -1.3 89
2019-07-14 05:00:00 21.2 8 Oeste 17 Sudoeste 0 1014.8 -1.6 89
2019-07-14 04:00:00 21.3 8 Sudoeste 15 Sudoeste 0 1015.1 -1.6 88
2019-07-14 03:00:00 21.4 9 Sudoeste 15 Sudoeste 0 1015.8 -1 87
2019-07-14 02:00:00 21.6 8 Sudoeste 15 Sudoeste 0 1016.4 -0.2 86
2019-07-14 01:00:00 21.6 11 Sudoeste 20 Oeste 0 1016.7 1.1 85
2019-07-14 00:00:00 21.8 12 Oeste 23 Sudoeste 0 1016.8 1.6 83
2019-07-13 23:00:00 21.8 13 Oeste 23 Oeste 0 1016.6 1.9 81
2019-07-13 22:00:00 22.2 12 Oeste 24 Oeste 0 1015.6 0.6 79
2019-07-13 21:00:00 23.4 14 Oeste 22 Sudoeste 0 1015.2 -0.3 72
2019-07-13 20:00:00 24.6 13 Oeste 23 Sudoeste 0 1014.7 -1 69
2019-07-13 19:00:00 24.9 11 Sudoeste 21 Sudoeste 0 1015 -1.3 65
2019-07-13 18:00:00 25.1 13 Oeste 24 Oeste 0 1015.5 -1.3 64
2019-07-13 17:00:00 24.9 14 Oeste 27 Oeste 0 1015.7 -1.4 65
2019-07-13 16:00:00 25.1 14 Oeste 22 Sudoeste 0 1016.3 -0.7 65
2019-07-13 15:00:00 24.8 12 Sudoeste 23 Sudoeste 0 1016.8 0 67
2019-07-13 14:00:00 25 10 Sudoeste 18 Sudoeste 0 1017.1 0.3 67
2019-07-13 13:00:00 25 6 Sur 15 Sur 0 1017 0.1 67
2019-07-13 12:00:00 24.1 8 Sur 16 Sudoeste 0 1016.8 0.2 69
2019-07-13 11:00:00 23.7 5 Sudoeste 11 Sudoeste 0 1016.8 0.7 74
2019-07-13 10:00:00 22.9 4 Sudoeste 11 Sudoeste 0 1016.9 1.2 83
2019-07-13 09:00:00 21.3 5 Sudoeste 9 Oeste 0 1016.6 1.1 92
2019-07-13 08:00:00 20.5 5 Sudoeste 13 Sur 0 1016.1 0.2 92
2019-07-13 07:00:00 21.2 8 Sur 14 Sudeste 0 1015.7 -0.4 91
2019-07-13 06:00:00 21.6 7 Sur 11 Sur 0 1015.5 -1.1 90
2019-07-13 05:00:00 21.4 3 Sudoeste 7 Sudoeste 0 1015.9 -1.1 90
2019-07-13 04:00:00 21.4 3 Sudoeste 8 Sudoeste 0 1016.1 -1.2 88
2019-07-13 03:00:00 21.6 5 Sudoeste 10 Sur 0 1016.6 -0.5 88
2019-07-13 02:00:00 21.7 6 Sudoeste 12 Sudoeste 0 1017 0.3 88
2019-07-13 01:00:00 21.7 6 Sudoeste 12 Sur 0 1017.3 1.6 88
2019-07-13 00:00:00 21.8 7 Sudoeste 17 Sudoeste 0 1017.1 1.6 88
2019-07-12 23:00:00 22 8 Sudoeste 15 Sudoeste 0 1016.7 2 87
2019-07-12 22:00:00 22.2 8 Sur 14 Sudoeste 0 1015.7 1 85
2019-07-12 21:00:00 22.6 8 Sudoeste 15 Sudoeste 0 1015.5 1.1 82
2019-07-12 20:00:00 23 7 Sudoeste 14 Oeste 0 1014.7 0.3 80
2019-07-12 19:00:00 23.4 11 Oeste 25 Oeste 0 1014.7 -0.5 79
2019-07-12 18:00:00 23.4 12 Oeste 22 Oeste 0 1014.4 -0.2 77
2019-07-12 17:00:00 23.5 8 Oeste 23 Oeste 0 1014.4 -0.7 77
2019-07-12 16:00:00 24.1 13 Oeste 25 Sudoeste 0 1015.2 -0.2 74
2019-07-12 15:00:00 23.9 9 Oeste 19 Sudoeste 0 1014.6 -0.5 74
2019-07-12 14:00:00 24 8 Oeste 17 Sudoeste 0 1015.1 -0.1 73
2019-07-12 13:00:00 23.5 9 Oeste 23 Oeste 0 1015.4 2.4 77
2019-07-12 12:00:00 23.2 5 Norte 19 Oeste 0 1015.1 0.2 78
2019-07-12 11:00:00 23.8 4 Sur 23 Nordeste 0 1015.2 0.1 77
2019-07-12 10:00:00 21.6 17 Norte 24 Norte 0 1013 -1.3 89
2019-07-12 09:00:00 21.8 5 Este 13 Sudeste 0 1014.9 0.9 90
2019-07-12 08:00:00 21.6 6 Sudeste 16 Sur 0 1015.1 1.2 90
2019-07-12 07:00:00 21.7 8 Este 11 Este 0 1014.3 0 91
2019-07-12 06:00:00 21.3 0 Calma 7 Sudoeste 0 1014 -0.3 93
2019-07-12 05:00:00 21.4 4 Sudoeste 11 Sudoeste 0 1013.9 -0.5 92
2019-07-12 04:00:00 21.5 8 Sur 19 Sur 0 1014.3 -0.3 93
2019-07-12 03:00:00 21.7 12 Sur 25 Sur 0 1014.3 0 92
2019-07-12 02:00:00 22.2 14 Sudeste 23 Sudeste 0 1014.4 0.9 90
2019-07-12 01:00:00 22.4 14 Sudeste 28 Sudeste 0 1014.6 2.1 86
2019-07-12 00:00:00 23.2 22 Sudeste 40 Sudeste 0 1014.3 2.6 85
2019-07-11 23:00:00 22.2 24 Sur 37 Sur 0 1013.5 2.4 87
2019-07-11 22:00:00 23 17 Sur 31 Sur 0 1012.5 1.8 84
2019-07-11 21:00:00 23.3 21 Sur 32 Sur 0 1011.7 0.9 81
2019-07-11 20:00:00 24.8 16 Sur 33 Sur 0 1011.1 0.2 72
2019-07-11 19:00:00 25.6 21 Sur 38 Sur 0 1010.7 -0.3 70
2019-07-11 18:00:00 31.7 26 Sudeste 44 Sudeste 0 1010.8 -0.4 40
2019-07-11 17:00:00 32 31 Sudeste 52 Sudeste 0 1010.9 -0.6 39
2019-07-11 16:00:00 31.7 32 Sudeste 50 Sudeste 0 1011 -1 40
2019-07-11 15:00:00 30.9 37 Sudeste 51 Sudeste 0 1011.2 -0.7 42
2019-07-11 14:00:00 30.8 27 Sudeste 44 Sudeste 0 1011.5 -0.6 44
2019-07-11 13:00:00 29.9 25 Sudeste 40 Sudeste 0 1012 -0.1 45
2019-07-11 12:00:00 28.6 28 Sudeste 44 Sudeste 0 1011.9 0.1 48
2019-07-11 11:00:00 27.4 27 Sudeste 39 Sudeste 0 1012.1 0.9 51
2019-07-11 10:00:00 26.6 17 Sudeste 31 Sudeste 0 1012.1 1.1 50
2019-07-11 09:00:00 23.4 3 Noroeste 7 Nordeste 0 1011.8 0.8 58
2019-07-11 08:00:00 22.7 3 Nordeste 11 Nordeste 0 1011.2 0 58
2019-07-11 07:00:00 23.2 8 Nordeste 16 Nordeste 0 1011 -0.4 51
2019-07-11 06:00:00 22.5 10 Nordeste 17 Nordeste 0 1011 -1.2 55
2019-07-11 05:00:00 23.2 6 Este 18 Este 0 1011.2 -1.3 56
2019-07-11 04:00:00 23.9 17 Este 23 Este 0 1011.4 -1.3 55
2019-07-11 03:00:00 24.4 18 Sudeste 23 Sudeste 0 1012.2 -0.4 51
2019-07-11 02:00:00 23.8 14 Sudeste 22 Sudeste 0 1012.5 1.2 56
2019-07-11 01:00:00 23.3 9 Sur 22 Sudeste 0 1012.7 2.3 70
2019-07-11 00:00:00 24.5 10 Sur 17 Sur 0 1012.6 2.2 49
2019-07-10 23:00:00 26.5 5 Sudoeste 28 Sudeste 0 1011.3 0.6 39
2019-07-10 22:00:00 27.8 22 Sudeste 33 Sudeste 0 1010.4 -0.3 37
2019-07-10 21:00:00 25.9 6 Este 17 Oeste 0 1010.4 -0.4 57
2019-07-10 20:00:00 25.2 15 Noroeste 21 Noroeste 0 1010.7 -0.4 65
2019-07-10 19:00:00 25.5 12 Oeste 20 Oeste 0 1010.7 -0.8 63
2019-07-10 18:00:00 25.3 12 Oeste 21 Oeste 0 1010.8 -1 62
2019-07-10 17:00:00 25.7 12 Oeste 21 Oeste 0 1011.1 -1.4 65
2019-07-10 16:00:00 25.2 13 Oeste 26 Oeste 0 1011.5 -1.4 68
2019-07-10 15:00:00 23.9 19 Oeste 28 Oeste 0 1011.8 -1.1 71
2019-07-10 14:00:00 24.4 14 Oeste 21 Oeste 0 1012.5 -0.5 71
2019-07-10 13:00:00 24 12 Sudoeste 17 Oeste 0 1012.9 0 68
2019-07-10 12:00:00 23.9 6 Sudoeste 13 Sudoeste 0 1012.9 0.4 69
2019-07-10 11:00:00 23.2 5 Sur 12 Sur 0 1013 0.3 74
2019-07-10 10:00:00 21.9 5 Sur 10 Sur 0 1012.9 0.2 80
2019-07-10 09:00:00 20.7 3 Sur 9 Sur 0 1012.5 -0.2 87
2019-07-10 08:00:00 20 5 Sur 12 Sur 0 1012.7 -0.1 88
2019-07-10 07:00:00 19.8 5 Sur 10 Sudeste 0 1012.7 -0.4 86
2019-07-10 06:00:00 19.8 9 Sur 18 Sudeste 0 1012.7 -1.2 86
2019-07-10 05:00:00 20.6 10 Sudeste 15 Sur 0 1012.8 -1.3 82
2019-07-10 04:00:00 20.4 3 Sur 7 Sur 0 1013.1 -1.3 81
2019-07-10 03:00:00 20.4 3 Sudoeste 9 Sudoeste 0 1013.9 -0.4 79
2019-07-10 02:00:00 20.6 3 Sudoeste 8 Noroeste 0 1014.1 -0.1 77
2019-07-10 01:00:00 21 5 Oeste 15 Noroeste 0 1014.4 0.5 78
2019-07-10 00:00:00 21.1 11 Noroeste 17 Oeste 0 1014.3 0.8 83
2019-07-09 23:00:00 21.2 11 Noroeste 17 Noroeste 0 1014.2 0.6 83
2019-07-09 22:00:00 21.5 11 Oeste 18 Oeste 0 1013.9 0.2 76
2019-07-09 21:00:00 22.2 11 Sudoeste 18 Oeste 0 1013.5 -0.6 69
2019-07-09 20:00:00 23.6 12 Oeste 23 Oeste 0 1013.6 -0.9 65
2019-07-09 19:00:00 23.6 14 Oeste 26 Sudoeste 0 1013.7 -1.3 65
2019-07-09 18:00:00 24 11 Sudoeste 23 Oeste 0 1014.1 -1.3 65
2019-07-09 17:00:00 24 13 Oeste 23 Oeste 0 1014.5 -1.6 67
2019-07-09 16:00:00 23.2 13 Sudoeste 23 Oeste 0 1015 -1.5 67
2019-07-09 15:00:00 23.1 16 Oeste 27 Oeste 0 1015.4 -1.3 69
2019-07-09 14:00:00 22.7 14 Oeste 24 Oeste 0 1016.1 -0.4 69
2019-07-09 13:00:00 22.4 13 Oeste 21 Oeste 0 1016.5 0.3 71
2019-07-09 12:00:00 22.6 10 Oeste 19 Sudoeste 0 1016.7 1.1 70
2019-07-09 11:00:00 21.7 9 Oeste 18 Sudoeste 0 1016.5 1.1 75
2019-07-09 10:00:00 21.2 10 Oeste 16 Oeste 0 1016.2 1.2 78
2019-07-09 09:00:00 20.9 9 Oeste 13 Oeste 0 1015.6 0.7 81
2019-07-09 08:00:00 20.4 5 Noroeste 10 Noroeste 0 1015.4 0.3 82
2019-07-09 07:00:00 20.3 5 Noroeste 10 Oeste 0 1015 -0.2 81
2019-07-09 06:00:00 20.3 6 Oeste 18 Noroeste 0 1014.9 -0.8 80
2019-07-09 05:00:00 20.8 9 Noroeste 18 Noroeste 0 1015.1 -0.8 78
2019-07-09 04:00:00 20.9 7 Noroeste 12 Noroeste 0 1015.2 -1 80
2019-07-09 03:00:00 20.8 2 Este 18 Oeste 0 1015.7 -0.5 81
2019-07-09 02:00:00 20.7 9 Oeste 21 Oeste 0 1015.9 -0.2 83
2019-07-09 01:00:00 20.8 15 Oeste 28 Oeste 0 1016.2 0.6 82
2019-07-09 00:00:00 20.6 15 Oeste 28 Oeste 0 1016.2 1.1 84
2019-07-08 23:00:00 20.7 17 Oeste 31 Oeste 0 1016.1 1.4 82
2019-07-08 22:00:00 20.8 17 Oeste 36 Oeste 0 1015.6 0.8 80
2019-07-08 21:00:00 21.7 21 Oeste 37 Sudoeste 0 1015.1 -0.1 73
2019-07-08 20:00:00 22.4 22 Oeste 36 Oeste 0 1014.7 -0.6 67
2019-07-08 19:00:00 22.6 23 Oeste 35 Oeste 0 1014.8 -1.1 65
2019-07-08 18:00:00 23.5 19 Oeste 30 Sudoeste 0 1015.2 -0.9 64
2019-07-08 17:00:00 23.9 17 Oeste 26 Sudoeste 0 1015.3 -1.1 66
2019-07-08 16:00:00 24.3 16 Sudoeste 30 Oeste 0 1015.9 -0.5 65
2019-07-08 15:00:00 23.5 21 Sudoeste 29 Sudoeste 0 1016.1 -0.3 65
2019-07-08 14:00:00 22.9 16 Sudoeste 28 Oeste 0 1016.4 0.2 67
2019-07-08 13:00:00 22.5 18 Sudoeste 26 Sudoeste 0 1016.4 0.3 66
2019-07-08 12:00:00 22.7 12 Oeste 24 Oeste 0 1016.4 0.8 63
2019-07-08 11:00:00 21.7 13 Oeste 21 Oeste 0 1016.2 1 67
2019-07-08 10:00:00 21.1 11 Oeste 17 Sudoeste 0 1016.1 1.5 72
2019-07-08 09:00:00 20.8 9 Oeste 16 Oeste 0 1015.6 1.6 74
2019-07-08 08:00:00 20.2 7 Oeste 16 Oeste 0 1015.2 1.2 77
2019-07-08 07:00:00 20.1 8 Oeste 15 Noroeste 0 1014.6 0.6 78
2019-07-08 06:00:00 20 11 Oeste 21 Oeste 0 1014 0 80
2019-07-08 05:00:00 20.2 13 Oeste 26 Noroeste 0 1014 -0.3 82
2019-07-08 04:00:00 20.5 17 Oeste 29 Oeste 0 1014 -0.6 81
2019-07-08 03:00:00 20.5 16 Oeste 27 Sudoeste 0 1014 -0.9 82
2019-07-08 02:00:00 20.4 18 Oeste 28 Oeste 0 1014.3 -0.1 82
2019-07-08 01:00:00 20.5 13 Oeste 23 Oeste 0 1014.6 0.5 82
2019-07-08 00:00:00 20.6 12 Oeste 27 Oeste 0 1014.9 0.7 81
2019-07-07 23:00:00 20.8 16 Oeste 26 Oeste 0 1014.4 0.6 79
2019-07-07 22:00:00 21.2 14 Oeste 25 Oeste 0 1014.1 0.5 72
2019-07-07 21:00:00 22.5 14 Oeste 28 Oeste 0 1014.2 0.5 68
2019-07-07 20:00:00 22.6 19 Oeste 35 Oeste 0 1013.8 -0.3 71
2019-07-07 19:00:00 23.3 21 Oeste 35 Oeste 0 1013.6 -0.9 70
2019-07-07 18:00:00 23.6 21 Oeste 31 Oeste 0 1013.7 -1.1 67
2019-07-07 17:00:00 23.8 20 Oeste 32 Oeste 0 1014.1 -1.1 65
2019-07-07 16:00:00 24.1 18 Oeste 32 Oeste 0 1014.5 -0.7 62
2019-07-07 15:00:00 23.7 21 Oeste 33 Oeste 0 1014.8 -0.3 66
2019-07-07 14:00:00 23 20 Oeste 31 Oeste 0 1015.2 0.4 75
2019-07-07 13:00:00 22.4 17 Oeste 28 Oeste 0 1015.2 0.8 76
2019-07-07 12:00:00 21.7 15 Noroeste 26 Noroeste 0 1015.1 0.6 79
2019-07-07 11:00:00 21.3 17 Noroeste 26 Oeste 0 1014.8 0.4 80
2019-07-07 10:00:00 21.4 12 Noroeste 21 Noroeste 0 1014.4 0.1 78
2019-07-07 09:00:00 20.8 11 Norte 18 Noroeste 0 1014.5 0.3 80
2019-07-07 08:00:00 20.8 12 Noroeste 22 Noroeste 0 1014.4 0.2 78
2019-07-07 07:00:00 21.3 15 Noroeste 24 Noroeste 0 1014.3 -0.1 75
2019-07-07 06:00:00 21.6 12 Noroeste 20 Noroeste 0 1014.2 -0.9 72
2019-07-07 05:00:00 21.5 14 Noroeste 20 Noroeste 0 1014.2 -1.1 74
2019-07-07 04:00:00 21.4 3 Noroeste 13 Este 0 1014.4 -1.4 82
2019-07-07 03:00:00 21.3 8 Noroeste 25 Oeste 0 1015.1 -1.4 84
2019-07-07 02:00:00 20.6 15 Oeste 26 Noroeste 0 1015.3 0.5 87
2019-07-07 01:00:00 20.8 13 Oeste 22 Oeste 0 1015.8 0.5 85
2019-07-07 00:00:00 20.9 12 Sudoeste 24 Oeste 0 1016.5 0.7 84
2019-07-06 23:00:00 20.9 9 Sudoeste 20 Sudoeste 0 1014.8 0 84
2019-07-06 22:00:00 21.2 12 Oeste 23 Sudoeste 0 1015.3 1.3 83
2019-07-06 21:00:00 21.7 17 Sudoeste 29 Oeste 0 1015.8 1.8 79
2019-07-06 20:00:00 22.8 15 Sudoeste 27 Sudoeste 0 1014.8 0.6 70
2019-07-06 19:00:00 23.4 17 Oeste 35 Oeste 0 1014 -1.6 65
2019-07-06 18:00:00 24.1 14 Oeste 34 Oeste 0 1014 -1.8 66
2019-07-06 17:00:00 22.7 15 Oeste 27 Oeste 0 1014.2 -1.8 70
2019-07-06 16:00:00 23.9 19 Oeste 27 Oeste 0 1015.6 0 65
2019-07-06 15:00:00 23.4 12 Oeste 23 Oeste 0 1015.8 0.1 74
2019-07-06 14:00:00 22.5 15 Oeste 24 Oeste 0 1016 0.5 76
2019-07-06 13:00:00 22.3 14 Oeste 23 Oeste 0 1015.6 0.9 75
2019-07-06 12:00:00 22.7 12 Oeste 21 Oeste 0 1015.7 0.7 71
2019-07-06 11:00:00 22.2 12 Oeste 17 Oeste 0 1015.5 0.8 72
2019-07-06 10:00:00 21.8 8 Oeste 12 Oeste 0 1014.7 0.6 74
2019-07-06 09:00:00 21.1 3 Sudoeste 7 Sudoeste 0 1015 0.5 83
2019-07-06 08:00:00 20.2 0 Calma 4 Sudeste 0 1014.7 -0.4 87
2019-07-06 07:00:00 19.7 4 Nordeste 7 Este 0 1014.1 -1.5 86
2019-07-06 06:00:00 20 5 Este 8 Este 0 1014.5 -1.7 86
2019-07-06 05:00:00 19.9 0 Calma 3 Oeste 0 1015.1 -1.8 84
2019-07-06 04:00:00 20.2 3 Noroeste 12 Noroeste 0 1015.6 -1.8 83
2019-07-06 03:00:00 20.3 4 Oeste 15 Oeste 0 1016.2 -1.4 81
2019-07-06 02:00:00 20.3 4 Oeste 16 Oeste 0 1016.9 -0.5 78
2019-07-06 01:00:00 20.4 8 Oeste 15 Noroeste 0 1017.4 1.3 78
2019-07-06 00:00:00 20.6 9 Oeste 20 Oeste 0 1017.6 1.9 78
2019-07-05 23:00:00 20.9 13 Oeste 22 Noroeste 0 1017.4 2 76
2019-07-05 22:00:00 21.3 15 Oeste 28 Oeste 0 1016.1 0.7 70
2019-07-05 21:00:00 22.2 19 Oeste 29 Noroeste 0 1015.7 -0.4 65
2019-07-05 20:00:00 22.5 19 Oeste 30 Oeste 0 1015.4 -1.4 65
2019-07-05 19:00:00 22.5 21 Oeste 30 Oeste 0 1015.4 -1.9 63
2019-07-05 18:00:00 22.9 19 Oeste 28 Oeste 0 1016.1 -1.6 65
2019-07-05 17:00:00 23.2 18 Oeste 30 Oeste 0 1016.8 -1 61
2019-07-05 16:00:00 22.5 20 Oeste 31 Oeste 0 1017.3 -0.5 63
2019-07-05 15:00:00 23.2 21 Oeste 33 Oeste 0 1017.7 -0.1 65
2019-07-05 14:00:00 23.4 19 Oeste 28 Oeste 0 1017.8 0.3 63
2019-07-05 13:00:00 23.3 17 Oeste 27 Noroeste 0 1017.8 0.4 63
2019-07-05 12:00:00 22.7 15 Noroeste 21 Oeste 0 1017.8 0.6 63
2019-07-05 11:00:00 22 10 Noroeste 14 Noroeste 0 1017.5 0.3 65
2019-07-05 10:00:00 21.2 10 Noroeste 14 Norte 0 1017.4 0.4 69
2019-07-05 09:00:00 20.4 7 Norte 12 Norte 0 1017.2 0.2 76
2019-07-05 08:00:00 20.4 5 Nordeste 10 Norte 0 1017.2 0 78
2019-07-05 07:00:00 20.1 5 Noroeste 12 Noroeste 0 1017 -0.4 77
2019-07-05 06:00:00 20 7 Oeste 12 Oeste 0 1017 -0.8 75
2019-07-05 05:00:00 20.1 6 Oeste 13 Oeste 0 1017.2 -0.7 74
2019-07-05 04:00:00 20 10 Noroeste 15 Oeste 0 1017.4 -0.5 72
2019-07-05 03:00:00 20.1 8 Oeste 15 Oeste 0 1017.8 0.2 80
2019-07-05 02:00:00 20 7 Oeste 13 Oeste 0 1017.9 1 78
2019-07-05 01:00:00 20.2 9 Oeste 15 Oeste 0 1017.9 1.6 78
2019-07-05 00:00:00 20.4 7 Oeste 15 Oeste 0 1017.6 1.9 76
2019-07-04 23:00:00 20.5 10 Oeste 17 Oeste 0 1016.9 1.6 75
2019-07-04 22:00:00 20.8 11 Oeste 19 Oeste 0 1016.3 1 73
2019-07-04 21:00:00 22 14 Oeste 24 Oeste 0 1015.7 0 69
2019-07-04 20:00:00 23.1 16 Oeste 25 Oeste 0 1015.3 -0.8 64
2019-07-04 19:00:00 22.7 18 Oeste 27 Oeste 0 1015.3 -1 64
2019-07-04 18:00:00 22.9 15 Oeste 27 Oeste 0 1015.7 -1 65
2019-07-04 17:00:00 23.5 15 Oeste 24 Sudoeste 0 1016.1 -0.9 61
2019-07-04 16:00:00 22.9 13 Oeste 21 Sudoeste 0 1016.3 -0.8 62
2019-07-04 15:00:00 24 14 Oeste 21 Oeste 0 1016.7 -0.2 59
2019-07-04 14:00:00 23.2 9 Sudoeste 18 Sur 0 1017 0.5 62
2019-07-04 13:00:00 23.2 8 Sur 18 Sudoeste 0 1017.1 1 65
2019-07-04 12:00:00 22.5 9 Sudoeste 17 Sur 0 1016.9 1.1 67
2019-07-04 11:00:00 21.6 7 Sudoeste 17 Sudoeste 0 1016.5 1.2 69
2019-07-04 10:00:00 20.9 10 Sudoeste 18 Sudoeste 0 1016.1 1 73
2019-07-04 09:00:00 20.8 8 Sudoeste 19 Sudoeste 0 1015.8 1 72
2019-07-04 08:00:00 19.4 9 Sudoeste 16 Sudoeste 0 1015.3 0.7 79
2019-07-04 07:00:00 19.5 9 Sudoeste 19 Sudoeste 0 1015.1 0.5 78
2019-07-04 06:00:00 19.5 10 Sudoeste 21 Sur 0 1014.8 0.1 77
2019-07-04 05:00:00 19.5 10 Sudoeste 19 Sudoeste 0 1014.6 -0.2 76
2019-07-04 04:00:00 19.4 12 Sudoeste 21 Sudoeste 0 1014.6 -0.3 76
2019-07-04 03:00:00 19.6 11 Sudoeste 19 Sur 0 1014.7 -0.1 76
2019-07-04 02:00:00 19.9 12 Sudoeste 20 Sudoeste 0 1014.8 0.7 76
2019-07-04 01:00:00 19.9 12 Sudoeste 22 Sudoeste 0 1014.9 1.5 75
2019-07-04 00:00:00 20.2 10 Sudoeste 25 Sudoeste 0 1014.8 1.7 74
2019-07-03 23:00:00 20.2 14 Sudoeste 24 Oeste 0 1014.1 1.2 77
2019-07-03 22:00:00 20.8 14 Sudoeste 22 Sudoeste 0 1013.4 0.5 77
2019-07-03 21:00:00 22.2 13 Sudoeste 24 Sur 0 1013.1 -0.3 68
2019-07-03 20:00:00 22.6 15 Sur 24 Sur 0 1012.9 -0.8 67
2019-07-03 19:00:00 22.5 17 Sur 26 Sur 0 1012.9 -1.2 63
2019-07-03 18:00:00 22.9 17 Sur 26 Sudoeste 0 1013.4 -1 59
2019-07-03 17:00:00 23.2 17 Sur 27 Sur 0 1013.7 -1 62
2019-07-03 16:00:00 23.5 15 Sur 26 Sur 0 1014.1 -0.7 58
2019-07-03 15:00:00 23.4 15 Sur 28 Sur 0 1014.4 -0.4 59
2019-07-03 14:00:00 23.2 15 Sur -- -- 0 1014.7 -0.1 62
2019-07-03 13:00:00 22.8 18 Sur 30 Sur 0 1014.8 0.2 62
2019-07-03 12:00:00 22.8 20 Sur 30 Sur 0 1014.8 0.7 62
2019-07-03 11:00:00 21.7 18 Sur 29 Sur 0 1014.8 1.2 67
2019-07-03 10:00:00 20.9 14 Sur 33 Sudoeste 0 1014.6 1.3 69
2019-07-03 09:00:00 20.4 18 Sur 32 Sur 0 1014.1 0.6 70
2019-07-03 08:00:00 20.3 18 Sur 33 Sur 0 1013.6 0 74
2019-07-03 07:00:00 20.3 19 Sur 30 Sudeste 0 1013.3 -0.6 74
2019-07-03 06:00:00 20 17 Sur 31 Sur 0 1013.5 -0.6 75
2019-07-03 05:00:00 20.1 21 Sudeste 27 Sudeste 0 1013.6 -0.6 81
2019-07-03 04:00:00 20.4 13 Sur 22 Sur 0 1013.9 -0.2 78
2019-07-03 03:00:00 20.2 10 Sudoeste 20 Sur 0 1014.1 0 78
2019-07-03 02:00:00 20 13 Sur 19 Sur 0 1014.2 0.2 78
2019-07-03 01:00:00 20.3 8 Sur 19 Sur 0 1014.1 0.5 79
2019-07-03 00:00:00 20.6 7 Sudoeste 12 Sudoeste 0 1014.1 0.8 78
2019-07-02 23:00:00 20.7 5 Sudoeste 13 Sudoeste 0 1014 0.6 78
2019-07-02 22:00:00 21.1 6 Sudoeste 16 Sudoeste 0 1013.6 0 75
2019-07-02 21:00:00 22.6 8 Sudoeste 17 Sudoeste 0 1013.3 -0.9 67
2019-07-02 20:00:00 23.5 10 Oeste 18 Oeste 0 1013.4 -1.3 63
2019-07-02 19:00:00 23.7 7 Sudoeste 16 Oeste 0 1013.6 -1.7 60
2019-07-02 18:00:00 24 10 Sudoeste 20 Sudoeste 0 1014.2 -1.3 59
2019-07-02 17:00:00 24.1 10 Sudoeste 21 Sur 0 1014.7 -1.3 59
2019-07-02 16:00:00 24 12 Sur 22 Sur 0 1015.3 -1 61
2019-07-02 15:00:00 23.7 14 Sur 24 Sur 0 1015.5 -0.7 63
2019-07-02 14:00:00 23.1 15 Sudoeste 23 Sur 0 1016 0.1 65
2019-07-02 13:00:00 22.7 14 Sur 25 Sur 0 1016.3 0.3 67
2019-07-02 12:00:00 22.6 14 Sur 26 Sur 0 1016.2 0.4 68
2019-07-02 11:00:00 21.7 14 Sur 26 Sur 0 1015.9 0.6 73
2019-07-02 10:00:00 21.6 13 Sur 24 Sur 0 1016 0.7 76
2019-07-02 09:00:00 20.7 12 Sudoeste 21 Sudoeste 0 1015.8 1 82
2019-07-02 08:00:00 20.4 10 Sudoeste 21 Sur 0 1015.3 0.1 87
2019-07-02 07:00:00 20.4 10 Sudoeste 23 Sudoeste 0 1015.3 -0.3 90
2019-07-02 06:00:00 20.4 12 Sudoeste -- -- 0 1014.8 -1.2 90
2019-07-02 05:00:00 20.7 13 Sur 21 Sur 0 1015.2 -1.3 89
2019-07-02 04:00:00 20.7 10 Sur 17 Sudoeste 0 1015.6 -1.1 87
2019-07-02 03:00:00 20.9 10 Sudoeste 17 Sur 0 1016 -0.6 84
2019-07-02 02:00:00 21 10 Sur 17 Sur 0 1016.5 0.2 83
2019-07-02 01:00:00 21.3 9 Sudoeste 14 Sudoeste 0 1016.7 1 78
2019-07-02 00:00:00 21.3 9 Sudoeste 13 Sudoeste 0 1016.6 0.9 77
2019-07-01 23:00:00 21.5 5 Sudoeste 14 Oeste 0 1016.3 0.6 75
2019-07-01 22:00:00 21.6 8 Sudoeste 22 Oeste 0 1015.7 -0.4 73
2019-07-01 21:00:00 22.8 14 Oeste 24 Oeste 0 1015.7 -1 70
2019-07-01 20:00:00 23.3 16 Sudoeste 26 Sudoeste 0 1015.7 -1.3 68
2019-07-01 19:00:00 24.2 13 Sudoeste 22 Sudoeste 0 1016.1 -1.4 61
2019-07-01 18:00:00 23.6 15 Sudoeste 23 Oeste 0 1016.7 -1.5 65
2019-07-01 17:00:00 23.1 14 Sudoeste 25 Sudoeste 0 1017 -1.6 68
2019-07-01 16:00:00 24.1 12 Sudoeste 22 Sudoeste 0 1017.5 -1.1 65
2019-07-01 15:00:00 23.4 12 Sudoeste 20 Sudoeste 0 1018.2 -0.4 67
2019-07-01 14:00:00 23.5 10 Sur 21 Sudoeste 0 1018.6 0 68
2019-07-01 13:00:00 22.5 12 Sudoeste 21 Sudoeste 0 1018.6 0.2 70
2019-07-01 12:00:00 22.2 10 Sudoeste 17 Sur 0 1018.6 0.5 74
2019-07-01 11:00:00 22 9 Sudoeste 19 Sur 0 1018.6 0.9 74
2019-07-01 10:00:00 22.1 11 Sur 19 Sudoeste 0 1018.4 1 77
2019-07-01 09:00:00 21.1 10 Sur 19 Sur 0 1018.1 0.6 81
2019-07-01 08:00:00 20.9 8 Sur 16 Sur 0 1017.7 0.1 84
2019-07-01 07:00:00 20.7 8 Sudoeste 18 Sudoeste 0 1017.4 -0.4 83
2019-07-01 06:00:00 20.8 9 Sudoeste 19 Sur 0 1017.5 -0.6 87
2019-07-01 05:00:00 20.8 12 Sudoeste 22 Sur 0 1017.6 -1 89
2019-07-01 04:00:00 21 13 Sur 19 Sur 0 1017.8 -1.1 89
2019-07-01 03:00:00 20.8 10 Sur 18 Sur 0 1018.1 -0.7 89
2019-07-01 02:00:00 20.9 9 Sur 21 Sur 0 1018.6 0.2 88
2019-07-01 01:00:00 21.2 11 Sur 23 Sur 0 1018.9 1.4 88
2019-07-01 00:00:00 21.3 10 Sur 20 Sur 0 1018.8 1.4 87
2019-06-30 23:00:00 21.4 10 Sur 17 Sur 0 1018.4 1.4 89
2019-06-30 22:00:00 21.5 8 Sudoeste 17 Sudoeste 0 1017.5 0.3 84
2019-06-30 21:00:00 21.9 10 Sudoeste 21 Sudoeste 0 1017.4 0 80
2019-06-30 20:00:00 23.1 13 Sur 22 Sur 0 1017 -0.9 74
2019-06-30 19:00:00 23.4 12 Sur 21 Sur 0 1017.2 -1.1 71
2019-06-30 18:00:00 23.5 10 Sur 19 Sur 0 1017.4 -1.2 71
2019-06-30 17:00:00 23.6 12 Sur 19 Sudoeste 0 1017.9 -1 71
2019-06-30 16:00:00 23.6 12 Sur 21 Sudoeste 0 1018.3 -0.6 72
2019-06-30 15:00:00 23.2 12 Sur 20 Sur 0 1018.6 -0.1 75
2019-06-30 14:00:00 22.6 14 Sudoeste 23 Sudoeste 0 1018.9 0.7 78
2019-06-30 13:00:00 21.9 14 Sur 22 Sudoeste 0 1018.9 1.2 82
2019-06-30 12:00:00 21.8 12 Sur 21 Sur 0 1018.7 2 84
2019-06-30 11:00:00 21.9 10 Sur 19 Sur 0 1018.2 2 81
2019-06-30 10:00:00 21.7 10 Sur 22 Sur 0 1017.7 1.9 81
2019-06-30 09:00:00 21.8 14 Sur 22 Sur 0 1016.7 1 83
2019-06-30 08:00:00 21.5 12 Sur 23 Sur 0 1016.2 0.4 86
2019-06-30 07:00:00 21.5 14 Sur 23 Sudeste 0 1015.8 0 88
2019-06-30 06:00:00 21.5 13 Sur 24 Sur 0 1015.7 -0.1 88
2019-06-30 05:00:00 21.5 18 Sur 28 Sur 0 1015.8 0 88
2019-06-30 04:00:00 21.6 15 Sur 24 Sur 0 1015.8 0 91
2019-06-30 03:00:00 21.7 12 Sur 22 Sur 0 1015.8 0.4 90
2019-06-30 02:00:00 22 13 Sur 18 Sur 0 1015.8 0.6 89
2019-06-30 01:00:00 22 8 Sur 13 Sur 0 1015.8 1.4 87
2019-06-30 00:00:00 21.8 3 Sudoeste 13 Sudoeste 0 1015.4 1.4 86
2019-06-29 23:00:00 22.1 6 Sudoeste 11 Sudoeste 0 1015.2 1.6 85
2019-06-29 22:00:00 22.4 5 Sudoeste 12 Sudoeste 0 1014.4 0.9 81
2019-06-29 21:00:00 23.7 8 Oeste 15 Oeste 0 1014 0.3 75
2019-06-29 20:00:00 24.7 9 Oeste 17 Oeste 0 1013.6 -0.3 71
2019-06-29 19:00:00 25.1 9 Oeste 19 Sudoeste 0 1013.5 -0.6 67
2019-06-29 18:00:00 24.8 12 Oeste 23 Oeste 0 1013.7 -0.7 70
2019-06-29 17:00:00 24.9 14 Sudoeste 26 Sudoeste 0 1013.9 -0.7 71
2019-06-29 16:00:00 25 14 Oeste 24 Oeste 0 1014.1 -0.6 69
2019-06-29 15:00:00 24.5 17 Sudoeste 28 Sudoeste 0 1014.4 0.1 68
2019-06-29 14:00:00 24.2 16 Sudoeste 27 Sudoeste 0 1014.6 0.1 71
2019-06-29 13:00:00 24.6 11 Sudoeste 24 Sudoeste 0 1014.7 0.2 71
2019-06-29 12:00:00 23.8 14 Sudoeste 20 Sudoeste 0 1014.3 0 67
2019-06-29 11:00:00 24.5 7 Sur 13 Sudoeste 0 1014.5 0.7 73
2019-06-29 10:00:00 23.1 6 Sudeste 12 Sudeste 0 1014.5 1 78
2019-06-29 09:00:00 22.1 8 Sudeste 11 Este 0 1014.3 0.7 85
2019-06-29 08:00:00 21.5 7 Sudeste 12 Sudeste 0 1013.8 0.3 88
2019-06-29 07:00:00 21.3 7 Sudeste 16 Sudeste 0 1013.5 -0.4 89
2019-06-29 06:00:00 21.5 12 Sudeste 21 Sudeste 0 1013.6 -0.7 89
2019-06-29 05:00:00 22 16 Sudeste 24 Sudeste 0 1013.5 -1 84
2019-06-29 04:00:00 22.5 17 Sudeste 23 Sudeste 0 1013.9 -0.6 82
2019-06-29 03:00:00 23 19 Sudeste 32 Sudeste 0 1014.3 0.1 81
2019-06-29 02:00:00 23 9 Sur 17 Sur 0 1014.5 0.7 81
2019-06-29 01:00:00 23.3 8 Oeste 14 Oeste 0 1014.5 1.4 75
2019-06-29 00:00:00 23.4 6 Oeste 14 Oeste 0 1014.2 1.4 75
2019-06-28 23:00:00 23.4 9 Oeste 15 Oeste 0 1013.8 1.4 81
2019-06-28 22:00:00 24 11 Oeste 23 Oeste 0 1013.1 0.8 75
2019-06-28 21:00:00 24.8 13 Oeste 21 Noroeste 0 1012.8 0.3 68
2019-06-28 20:00:00 26.7 12 Oeste 23 Sudoeste 0 1012.4 -0.3 59
2019-06-28 19:00:00 26.7 8 Oeste 23 Sudoeste 0 1012.3 -0.9 58
2019-06-28 18:00:00 26.5 17 Oeste 28 Oeste 0 1012.5 -1.2 59
2019-06-28 17:00:00 26.1 12 Oeste 25 Oeste 0 1012.7 -1.4 61
2019-06-28 16:00:00 26.1 13 Sudoeste 27 Sudoeste 0 1013.2 -1 62
2019-06-28 15:00:00 26.2 10 Sudoeste 22 Oeste 0 1013.7 -0.7 59
2019-06-28 14:00:00 26.3 14 Sudoeste 21 Sudoeste 0 1014.1 -0.6 62
2019-06-28 13:00:00 26.7 12 Oeste 18 Sudoeste 0 1014.2 -0.6 53
2019-06-28 12:00:00 28.3 3 Sur 7 Noroeste 0 1014.4 -0.3 52
2019-06-28 11:00:00 26.8 4 Este 8 Este 0 1014.7 0.1 55
2019-06-28 10:00:00 23.8 4 Nordeste 7 Este 0 1014.8 0 67
2019-06-28 09:00:00 22.3 4 Nordeste 6 Este 0 1014.7 0.2 80
2019-06-28 08:00:00 20.8 0 Calma 4 Oeste 0 1014.6 -0.1 87
2019-06-28 07:00:00 20.6 3 Oeste 11 Sur 0 1014.8 -0.5 84
2019-06-28 06:00:00 21.1 6 Sur 10 Sur 0 1014.5 -1.3 81
2019-06-28 05:00:00 21.2 6 Este 9 Este 0 1014.7 -1.8 81
2019-06-28 04:00:00 20.8 0 Calma 5 Sudoeste 0 1015.3 -1.6 79
2019-06-28 03:00:00 20.9 3 Sudoeste 5 Oeste 0 1015.8 -1 77
2019-06-28 02:00:00 21.1 0 Calma 5 Noroeste 0 1016.5 -0.2 75
2019-06-28 01:00:00 21.3 4 Oeste 12 Noroeste 0 1016.9 0.7 76
2019-06-28 00:00:00 21.4 9 Noroeste 14 Oeste 0 1016.8 0.9 75
2019-06-27 23:00:00 21.6 10 Oeste 17 Noroeste 0 1016.7 1.3 74
2019-06-27 22:00:00 21.6 12 Noroeste 26 Oeste 0 1016.2 0.7 73
2019-06-27 21:00:00 22 16 Noroeste 29 Noroeste 0 1015.9 0.2 69
2019-06-27 20:00:00 22.3 21 Noroeste 30 Oeste 0 1015.4 -0.7 67
2019-06-27 19:00:00 22.4 20 Oeste 32 Oeste 0 1015.5 -1.1 71
2019-06-27 18:00:00 23.1 18 Oeste 27 Oeste 0 1015.7 -1.3 68
2019-06-27 17:00:00 22.9 16 Oeste 27 Oeste 0 1016.1 -1.3 72
2019-06-27 16:00:00 22.4 17 Oeste 26 Sudoeste 0 1016.6 -0.8 73
2019-06-27 15:00:00 22 16 Oeste 23 Oeste 0 1017 -0.5 74
2019-06-27 14:00:00 22 10 Oeste 21 Oeste 0 1017.4 -0.1 73
2019-06-27 13:00:00 21.7 12 Oeste 17 Oeste 0 1017.4 0.2 77
2019-06-27 12:00:00 21.8 8 Oeste 16 Oeste 0 1017.5 0.8 75
2019-06-27 11:00:00 22.1 8 Sudoeste 17 Oeste 0 1017.5 1.1 72
2019-06-27 10:00:00 22.5 6 Sur 11 Sur 0 1017.2 1.2 72
2019-06-27 09:00:00 21.6 2 Sur 5 Sur 0 1016.7 1 77
2019-06-27 08:00:00 20.3 2 Oeste 13 Oeste 0 1016.4 0.8 85
2019-06-27 07:00:00 20 7 Oeste 12 Oeste 0 1016 0.3 85
2019-06-27 06:00:00 20.1 6 Oeste 10 Oeste 0 1015.7 -0.7 86
2019-06-27 05:00:00 20.2 7 Noroeste 15 Noroeste 0 1015.6 -1.7 86
2019-06-27 04:00:00 20.4 9 Oeste 14 Noroeste 0 1015.7 -1.8 85
2019-06-27 03:00:00 20.4 10 Noroeste 14 Noroeste 0 1016.4 -0.9 86
2019-06-27 02:00:00 20.6 7 Noroeste 13 Noroeste 0 1017.3 0.4 85
2019-06-27 01:00:00 21 7 Oeste 16 Noroeste 0 1017.5 1.5 85
2019-06-27 00:00:00 21.1 9 Oeste 19 Noroeste 0 1017.3 1.4 84
2019-06-26 23:00:00 21.3 11 Oeste 20 Oeste 0 1016.9 1.3 85
2019-06-26 22:00:00 21.8 12 Oeste 20 Oeste 0 1016 0.6 84
2019-06-26 21:00:00 22.8 13 Oeste 21 Oeste 0 1015.9 0.4 80
2019-06-26 20:00:00 24.4 12 Oeste 22 Oeste 0 1015.6 -0.3 71
2019-06-26 19:00:00 24.5 15 Oeste 24 Oeste 0 1015.4 -1 68
2019-06-26 18:00:00 24.5 17 Oeste 25 Oeste 0 1015.5 -1.4 68
2019-06-26 17:00:00 25.1 15 Oeste 26 Oeste 0 1015.9 -1.5 68
2019-06-26 16:00:00 24.9 14 Oeste 26 Sudoeste 0 1016.4 -1.5 67
2019-06-26 15:00:00 24.6 15 Sudoeste 23 Sudoeste 0 1016.9 -0.9 68
2019-06-26 14:00:00 23.7 12 Sudoeste 22 Sudoeste 0 1017.4 -0.3 69
2019-06-26 13:00:00 24 9 Sudoeste 18 Sudoeste 0 1017.9 0.4 66
2019-06-26 12:00:00 24.2 8 Sudoeste 17 Sudoeste 0 1017.8 0.8 65
2019-06-26 11:00:00 23.7 7 Sur 13 Sur 0 1017.7 1 70
2019-06-26 10:00:00 23.1 5 Sudeste 8 Sudeste 0 1017.5 1.3 75
2019-06-26 09:00:00 21.6 4 Sudoeste 7 Oeste 0 1017 1.1 80
2019-06-26 08:00:00 20.7 4 Oeste 11 Oeste 0 1016.7 1.1 85
2019-06-26 07:00:00 20.4 4 Sudoeste 10 Oeste 0 1016.2 0.5 88
2019-06-26 06:00:00 20.4 3 Sudoeste 8 Oeste 0 1015.9 -0.1 90
2019-06-26 05:00:00 20.4 4 Sudoeste 6 Sudoeste 0 1015.6 -0.6 89
2019-06-26 04:00:00 20.7 4 Sudoeste 8 Sudoeste 0 1015.7 -0.4 89
2019-06-26 03:00:00 20.9 3 Sudoeste 9 Sudoeste 0 1016 0.3 89
2019-06-26 02:00:00 20.9 5 Sudoeste 8 Sudoeste 0 1016.2 1 87
2019-06-26 01:00:00 21.3 6 Oeste 10 Oeste 0 1016.1 1.4 86
2019-06-26 00:00:00 21.5 5 Oeste 12 Oeste 0 1015.7 1.3 84
2019-06-25 23:00:00 21.5 8 Oeste 15 Oeste 0 1015.2 0.9 81
2019-06-25 22:00:00 21.7 11 Oeste 19 Oeste 0 1014.7 0.5 77
2019-06-25 21:00:00 22.6 13 Oeste 21 Oeste 0 1014.4 0.1 68
2019-06-25 20:00:00 22.8 14 Oeste 24 Noroeste 0 1014.3 -0.5 66
2019-06-25 19:00:00 23.6 14 Oeste 29 Oeste 0 1014.2 -0.7 62
2019-06-25 18:00:00 24 18 Oeste 27 Oeste 0 1014.3 -0.9 60
2019-06-25 17:00:00 23.4 15 Oeste 23 Sudoeste 0 1014.8 -1 63
2019-06-25 16:00:00 24.3 12 Oeste 24 Sudoeste 0 1014.9 -1.2 59
2019-06-25 15:00:00 24 11 Sudoeste 21 Oeste 0 1015.2 -1 58
2019-06-25 14:00:00 23.9 11 Sudoeste 22 Oeste 0 1015.8 -0.2 67
2019-06-25 13:00:00 23.5 10 Sudoeste 20 Sudoeste 0 1016.1 0.2 71
2019-06-25 12:00:00 23.3 9 Sudoeste 18 Sudoeste 0 1016.2 0.4 73
2019-06-25 11:00:00 22.5 9 Sur 15 Sur 0 1016 0.7 78
2019-06-25 10:00:00 21.9 9 Sur 17 Sur 0 1015.9 1.1 81
2019-06-25 09:00:00 21 12 Sur 18 Sudoeste 0 1015.8 1.5 87
2019-06-25 08:00:00 20.2 10 Sur 17 Sur 0 1015.3 0.9 90
2019-06-25 07:00:00 20 10 Sur 17 Sur 0 1014.8 0.2 89
2019-06-25 06:00:00 20.1 7 Sur 12 Sur 0 1014.3 -0.4 89
2019-06-25 05:00:00 19.8 4 Sudoeste 9 Oeste 0 1014.4 -1.2 89
2019-06-25 04:00:00 20.1 6 Oeste 16 Oeste 0 1014.6 -1.1 91
2019-06-25 03:00:00 20.4 11 Oeste 16 Oeste 0 1014.7 -0.6 91
2019-06-25 02:00:00 20.6 5 Sudoeste 11 Sur 0 1015.6 0.8 90
2019-06-25 01:00:00 20.8 7 Sudoeste 11 Sur 0 1015.7 1.3 90
2019-06-25 00:00:00 20.7 5 Sudoeste 10 Sudoeste 0 1015.3 1.1 88
2019-06-24 23:00:00 21 5 Oeste 12 Oeste 0 1014.8 0.7 87
2019-06-24 22:00:00 21.1 6 Sudoeste 13 Sudoeste 0 1014.4 0.2 84
2019-06-24 21:00:00 23 8 Oeste 16 Oeste 0 1014.2 -0.1 76
2019-06-24 20:00:00 22.9 9 Oeste 15 Oeste 0 1014.1 -0.3 77
2019-06-24 19:00:00 23.7 10 Oeste 19 Oeste 0 1014.2 -0.3 73
2019-06-24 18:00:00 22.8 13 Oeste 23 Sudoeste 0 1014.3 -0.3 77
2019-06-24 17:00:00 23.3 13 Oeste 22 Oeste 0 1014.4 -0.5 72
2019-06-24 16:00:00 24 12 Oeste 19 Sudoeste 0 1014.5 -0.4 71
2019-06-24 15:00:00 24.3 10 Oeste 21 Oeste 0 1014.6 -0.2 72
2019-06-24 14:00:00 23.2 8 Sudoeste 17 Sur 0 1014.9 0.1 76
2019-06-24 13:00:00 21.6 7 Sudoeste 14 Sur 0 1014.9 0.2 84
2019-06-24 12:00:00 20.6 9 Sudoeste 14 Sudoeste 0 1014.8 0.8 89
2019-06-24 11:00:00 20.8 7 Sudoeste 14 Sudoeste 0 1014.8 1.2 89
2019-06-24 10:00:00 20.6 9 Sudoeste 15 Oeste 0 1014.7 1.5 84
2019-06-24 09:00:00 20.3 9 Sudoeste 17 Sudoeste 0 1014 0.9 85
2019-06-24 08:00:00 20.3 9 Sudoeste 19 Sudoeste 0 1013.6 0.4 87
2019-06-24 07:00:00 20.3 8 Sudoeste 17 Sudoeste 0 1013.2 -0.1 88
2019-06-24 06:00:00 20.1 10 Sudoeste 19 Sur 0 1013.1 -0.5 89
2019-06-24 05:00:00 20.3 7 Sur 14 Sudoeste 0 1013.2 -0.6 89
2019-06-24 04:00:00 20.1 6 Sur 15 Sur 0 1013.3 -0.8 90
2019-06-24 03:00:00 20.2 7 Sur 11 Sudoeste 0 1013.6 -0.2 90
2019-06-24 02:00:00 20.3 4 Sudoeste 9 Oeste 0 1013.8 0.5 89
2019-06-24 01:00:00 20.4 4 Oeste 12 Oeste 0 1014.1 1.5 87
2019-06-24 00:00:00 20.7 8 Oeste 14 Oeste 0 1013.8 1.6 86
2019-06-23 23:00:00 20.9 10 Noroeste 21 Noroeste 0 1013.3 1.4 84
2019-06-23 22:00:00 21 12 Oeste 19 Oeste 0 1012.6 0.8 78
2019-06-23 21:00:00 21.4 11 Oeste 19 Oeste 0 1012.2 0.1 69
2019-06-23 20:00:00 22.6 11 Oeste 18 Oeste 0 1011.9 -0.5 71
2019-06-23 19:00:00 23.4 7 Oeste 19 Oeste 0 1011.8 -1 71
2019-06-23 18:00:00 23.8 10 Oeste 21 Oeste 0 1012.1 -0.9 68
2019-06-23 17:00:00 22.9 13 Oeste 26 Oeste 0 1012.4 -0.8 70
2019-06-23 16:00:00 23.3 15 Oeste 26 Oeste 0 1012.8 -0.9 69
2019-06-23 15:00:00 23.6 17 Oeste 23 Oeste 0 1013 -0.6 68
2019-06-23 14:00:00 23.7 11 Sudoeste 21 Sudoeste 0 1013.2 -0.5 68
2019-06-23 13:00:00 23.8 14 Sudoeste 23 Oeste 0 1013.7 0.4 69
2019-06-23 12:00:00 22.9 11 Sudoeste 25 Sur 0 1013.6 0.5 71
2019-06-23 11:00:00 22.7 13 Sur 23 Sur 0 1013.7 1 74
2019-06-23 10:00:00 22.6 13 Sudeste 22 Sudeste 0 1013.3 0.3 75
2019-06-23 09:00:00 21.4 18 Sudeste 23 Sudeste 0 1013.1 0 81
2019-06-23 08:00:00 20.8 19 Sudeste 23 Sudeste 0 1012.7 -0.1 85
2019-06-23 07:00:00 20.3 8 Sudeste 14 Sur 0 1013 0.3 86
2019-06-23 06:00:00 20.4 10 Sur 17 Sur 0 1013.1 -0.1 83
2019-06-23 05:00:00 20.6 10 Sur 17 Sudeste 0 1012.8 -0.8 79
2019-06-23 04:00:00 21.3 9 Sur 17 Sudeste 0 1012.7 -1.3 72
2019-06-23 03:00:00 22.1 11 Sudeste 14 Sudeste 0 1013.2 -0.8 66
2019-06-23 02:00:00 21 2 Oeste 10 Oeste 0 1013.6 -0.1 56
2019-06-23 01:00:00 21.6 6 Noroeste 8 Noroeste 0 1014 0.8 53
2019-06-23 00:00:00 21.5 5 Noroeste 12 Noroeste 0 1014 1.3 58
2019-06-22 23:00:00 21.4 8 Noroeste 13 Oeste 0 1013.7 1.2 69
2019-06-22 22:00:00 21.9 9 Noroeste 13 Oeste 0 1013.2 0.5 61
2019-06-22 21:00:00 23.8 8 Oeste 17 Oeste 0 1012.7 -0.1 56
2019-06-22 20:00:00 23.5 11 Oeste 21 Oeste 0 1012.5 -0.6 62
2019-06-22 19:00:00 23.3 15 Oeste 22 Sudoeste 0 1012.7 -0.7 63
2019-06-22 18:00:00 23.6 14 Sudoeste 26 Oeste 0 1012.8 -1.2 59
2019-06-22 17:00:00 23.7 14 Sudoeste 27 Oeste 0 1013.1 -1.3 65
2019-06-22 16:00:00 23.6 18 Sudoeste 26 Sudoeste 0 1013.4 -1.4 65
2019-06-22 15:00:00 23.2 13 Sudoeste 27 Sudoeste 0 1014 -0.7 66
2019-06-22 14:00:00 22.6 15 Sudoeste 24 Sur 0 1014.4 -0.2 73
2019-06-22 13:00:00 22 15 Sudoeste 25 Sudoeste 0 1014.8 0.3 72
2019-06-22 12:00:00 21.2 16 Sur 28 Sur 0 1014.7 0.1 76
2019-06-22 11:00:00 20.8 17 Sur 31 Sur 0 1014.6 0.4 75
2019-06-22 10:00:00 21.1 22 Sur 36 Sudeste 0 1014.5 0.8 83
2019-06-22 09:00:00 20.2 19 Sur 30 Sudeste 0 1014.6 1.4 87
2019-06-22 08:00:00 19.3 18 Sur 27 Sur 0 1014.2 1 92
2019-06-22 07:00:00 18.7 23 Sudeste 28 Sudeste 0 1013.7 0.3 92
2019-06-22 06:00:00 18.8 16 Sudeste 19 Sudeste 0 1013.2 -0.5 92
2019-06-22 05:00:00 18.9 14 Sudeste 18 Sudeste 0 1013.2 -1 90
2019-06-22 04:00:00 19 12 Sudeste 18 Sur 0 1013.4 -1.2 89
2019-06-22 03:00:00 19.8 10 Sur 19 Sur 0 1013.7 -0.9 87
2019-06-22 02:00:00 19.9 12 Sur 18 Sur 0 1014.2 -0.3 85
2019-06-22 01:00:00 20.3 9 Sur 16 Sur 0 1014.6 0.3 79
2019-06-22 00:00:00 20.6 6 Sur 10 Sur 0 1014.6 0.5 74
2019-06-21 23:00:00 20.5 4 Sudoeste 12 Sudoeste 0 1014.5 0.2 73
2019-06-21 22:00:00 20.5 6 Sudoeste 19 Oeste 0 1014.3 -0.2 70
2019-06-21 21:00:00 21.7 12 Oeste 19 Oeste 0 1014.1 -0.9 66
2019-06-21 20:00:00 22 9 Oeste 22 Sudoeste 0 1014.3 -0.9 65
2019-06-21 19:00:00 22.1 13 Sudoeste 23 Oeste 0 1014.5 -1.2 62
2019-06-21 18:00:00 22.1 14 Oeste 27 Oeste 0 1015 -0.8 62
2019-06-21 17:00:00 22 15 Oeste 29 Oeste 0 1015.2 -1.3 63
2019-06-21 16:00:00 21.5 17 Oeste 28 Oeste 0 1015.7 -1.2 66
2019-06-21 15:00:00 20.2 18 Oeste 27 Noroeste 0 1015.8 -1.1 69
2019-06-21 14:00:00 20.5 16 Oeste 26 Oeste 0 1016.5 -0.3 70
2019-06-21 13:00:00 19.7 14 Oeste 29 Noroeste 0 1016.9 0 72
2019-06-21 12:00:00 19.5 17 Noroeste 28 Oeste 0 1016.9 0.3 73
2019-06-21 11:00:00 18.9 18 Noroeste 28 Noroeste 0 1016.8 0.7 74
2019-06-21 10:00:00 18.8 18 Noroeste 29 Oeste 0 1016.9 1.1 75
2019-06-21 09:00:00 19 15 Noroeste 22 Noroeste 0 1016.6 1.1 74
2019-06-21 08:00:00 19 13 Noroeste 21 Noroeste 0 1016.1 0.6 71
2019-06-21 07:00:00 19.3 10 Noroeste 18 Norte 0 1015.8 0.3 70
2019-06-21 06:00:00 19.5 14 Norte 24 Noroeste 0 1015.5 0 70
2019-06-21 05:00:00 20 17 Noroeste 29 Noroeste 0 1015.5 0.1 71
2019-06-21 04:00:00 20 19 Noroeste 35 Noroeste 0 1015.5 0 70
2019-06-21 03:00:00 20.4 18 Noroeste 30 Noroeste 0 1015.5 0.3 69
2019-06-21 02:00:00 20.7 15 Noroeste 26 Oeste 0 1015.4 0.3 72
2019-06-21 01:00:00 20.2 18 Oeste 32 Oeste 0 1015.5 0.6 76
2019-06-21 00:00:00 20.2 17 Oeste 29 Oeste 0 1015.2 0.4 74
2019-06-20 23:00:00 19.9 15 Oeste 27 Sudoeste 0 1015.1 0.4 75
2019-06-20 22:00:00 20.3 16 Oeste 30 Oeste 0 1014.9 0.1 72
2019-06-20 21:00:00 21.6 16 Oeste 27 Oeste 0 1014.8 -0.5 65
2019-06-20 20:00:00 22.2 14 Oeste 27 Oeste 0 1014.7 -0.8 65
2019-06-20 19:00:00 22 18 Oeste 29 Sudoeste 0 1014.8 -1.1 65
2019-06-20 18:00:00 21.8 18 Oeste 31 Oeste 0 1015.3 -1.1 65
2019-06-20 17:00:00 22.6 17 Sudoeste 28 Oeste 0 1015.5 -1.1 63
2019-06-20 16:00:00 22.2 18 Sudoeste 27 Sudoeste 0 1015.9 -0.8 65
2019-06-20 15:00:00 22.6 18 Oeste 28 Sudoeste 0 1016.4 -0.1 66
2019-06-20 14:00:00 22.6 18 Oeste 24 Oeste 0 1016.6 0.3 65
2019-06-20 13:00:00 22.2 12 Sudoeste 23 Oeste 0 1016.7 0.5 61
2019-06-20 12:00:00 21.4 12 Oeste 18 Oeste 0 1016.5 0.4 68
2019-06-20 11:00:00 21 14 Oeste 22 Oeste 0 1016.3 0.4 71
2019-06-20 10:00:00 20.1 14 Oeste 23 Oeste 0 1016.2 0.6 75
2019-06-20 09:00:00 19.8 13 Oeste 19 Noroeste 0 1016.1 0.6 75
2019-06-20 08:00:00 19.6 12 Oeste 49 Oeste 0 1015.9 0.5 78
2019-06-20 07:00:00 19.4 12 Oeste 19 Oeste 0 1015.6 0.1 78
2019-06-20 06:00:00 19.6 11 Oeste 19 Oeste 0 1015.5 -0.5 78
2019-06-20 05:00:00 19.9 10 Noroeste 19 Oeste 0 1015.4 -1 79
2019-06-20 04:00:00 19.6 10 Oeste 21 Oeste 0 1015.5 -1.1 82
2019-06-20 03:00:00 19.2 14 Oeste 24 Oeste 0 1016 -0.6 89
2019-06-20 02:00:00 19.5 14 Oeste 26 Sudoeste 0 1016.4 0.3 90
2019-06-20 01:00:00 19.6 13 Oeste 24 Oeste 0 1016.6 0.6 90
2019-06-20 00:00:00 19.8 15 Oeste 28 Oeste 0 1016.6 0.6 90
2019-06-19 23:00:00 19.9 13 Oeste 25 Oeste 0 1016.1 0.3 87
2019-06-19 22:00:00 20.3 14 Oeste 32 Oeste 0 1016 0.4 85
2019-06-19 21:00:00 21 17 Oeste 29 Oeste 0 1016 0 81
2019-06-19 20:00:00 22.2 19 Oeste 34 Oeste 0 1015.8 -0.5 74
2019-06-19 19:00:00 22.5 19 Oeste 32 Oeste 0 1015.6 -1 71
2019-06-19 18:00:00 22.6 17 Oeste 32 Oeste 0 1016 -1.1 71
2019-06-19 17:00:00 23.2 18 Oeste 30 Oeste 0 1016.3 -1.4 67
2019-06-19 16:00:00 22.9 15 Oeste 29 Oeste 0 1016.6 -1 67
2019-06-19 15:00:00 22.6 18 Oeste 27 Oeste 0 1017.1 -0.5 71
2019-06-19 14:00:00 22.6 16 Oeste 26 Oeste 0 1017.7 0.3 71
2019-06-19 13:00:00 22.6 15 Oeste 24 Oeste 0 1017.6 0.3 73
2019-06-19 12:00:00 21.8 12 Oeste 18 Sudoeste 0 1017.6 0.7 73
2019-06-19 11:00:00 21.3 12 Oeste 17 Oeste 0 1017.4 0.6 77
2019-06-19 10:00:00 20.2 11 Noroeste 16 Noroeste 0 1017.3 0.6 81
2019-06-19 09:00:00 19.6 10 Noroeste 16 Noroeste 0 1016.9 0.4 87
2019-06-19 08:00:00 19.5 10 Noroeste 18 Noroeste 0 1016.8 0.4 90
2019-06-19 07:00:00 19.2 9 Noroeste 12 Noroeste 0 1016.7 0.1 90
2019-06-19 06:00:00 19.3 8 Oeste 15 Oeste 0 1016.5 -0.5 91
2019-06-19 05:00:00 19.4 8 Oeste 15 Oeste 0 1016.4 -0.8 91
2019-06-19 04:00:00 19.4 10 Oeste 16 Oeste 0 1016.6 -0.8 91
2019-06-19 03:00:00 19.6 8 Oeste 16 Oeste 0 1017 -0.4 90
2019-06-19 02:00:00 19.6 10 Oeste 17 Oeste 0 1017.2 0 90
2019-06-19 01:00:00 19.6 9 Oeste 15 Sudoeste 0 1017.4 0.5 87
2019-06-19 00:00:00 19.7 8 Sudoeste 14 Oeste 0 1017.4 0.5 86
2019-06-18 23:00:00 19.7 9 Sudoeste 14 Oeste 0 1017.2 0.6 85
2019-06-18 22:00:00 20.2 10 Oeste 17 Oeste 0 1016.9 0.4 80
2019-06-18 21:00:00 22.1 12 Oeste 22 Oeste 0 1016.9 0.1 72
2019-06-18 20:00:00 22.2 12 Oeste 22 Oeste 0 1016.6 -0.4 71
2019-06-18 19:00:00 22.4 13 Sudoeste 24 Oeste 0 1016.5 -0.9 65
2019-06-18 18:00:00 22.6 15 Sudoeste 23 Sudoeste 0 1016.8 -0.7 63
2019-06-18 17:00:00 22.5 10 Sudoeste 22 Oeste 0 1017 -0.9 61
2019-06-18 16:00:00 22.8 12 Sudoeste 20 Sudoeste 0 1017.4 -0.5 57
2019-06-18 15:00:00 22.8 10 Sudoeste 19 Sudoeste 0 1017.5 -0.3 56
2019-06-18 14:00:00 22.3 10 Sudoeste 18 Sudoeste 0 1017.9 0.4 54
2019-06-18 13:00:00 22.3 9 Sudoeste 20 Sudoeste 0 1017.9 0.4 55
2019-06-18 12:00:00 21 11 Sudoeste 19 Oeste 0 1017.8 0.8 59
2019-06-18 11:00:00 21.3 9 Sur 17 Sudoeste 0 1017.5 1 60
2019-06-18 10:00:00 19.5 8 Sudoeste 17 Sudoeste 0 1017.5 1.5 66
2019-06-18 09:00:00 19.1 10 Oeste 18 Oeste 0 1017 1.4 69
2019-06-18 08:00:00 18.4 9 Sudoeste 17 Sudoeste 0 1016.5 0.8 72
2019-06-18 07:00:00 18.1 6 Sudoeste 13 Sudoeste 0 1016 0.3 77
2019-06-18 06:00:00 17.8 5 Sudoeste 10 Sudoeste 0 1015.6 -0.3 80
2019-06-18 05:00:00 17.9 6 Oeste 15 Sudoeste 0 1015.7 -0.1 82
2019-06-18 04:00:00 17.8 8 Oeste 13 Oeste 0 1015.7 -0.3 85
2019-06-18 03:00:00 17.9 8 Oeste 12 Oeste 0 1015.9 0 86
2019-06-18 02:00:00 17.9 4 Oeste 13 Oeste 0 1015.8 0.3 85
2019-06-18 01:00:00 18.1 8 Oeste 13 Oeste 0 1016 1 84
2019-06-18 00:00:00 18.3 9 Oeste 15 Oeste 0 1015.9 1.1 83
2019-06-17 23:00:00 18.5 10 Oeste 16 Oeste 0 1015.5 0.3 81
2019-06-17 22:00:00 19.2 9 Oeste 16 Oeste 0 1015 -0.1 75
2019-06-17 21:00:00 20.2 12 Noroeste 21 Noroeste 0 1014.8 -0.7 71
2019-06-17 20:00:00 20.3 17 Oeste 25 Noroeste 0 1015.2 -0.3 72
2019-06-17 19:00:00 21.1 16 Oeste 31 Oeste 0 1015.1 -1 70
2019-06-17 18:00:00 21.6 19 Oeste 25 Oeste 0 1015.5 -1.1 68
2019-06-17 17:00:00 21.5 17 Oeste 28 Sudoeste 0 1015.5 -1.8 68
2019-06-17 16:00:00 22.1 15 Oeste 27 Sudoeste 0 1016.1 -1.2 69
2019-06-17 15:00:00 22.1 17 Sudoeste 27 Oeste 0 1016.6 -1 68
2019-06-17 14:00:00 21.7 16 Sudoeste 28 Sudoeste 0 1017.3 -0.5 71
2019-06-17 13:00:00 20.8 15 Sur 23 Sudoeste 0 1017.3 -0.4 75
2019-06-17 12:00:00 20.8 11 Sur 20 Sur 0 1017.6 -0.2 74
2019-06-17 11:00:00 20.6 9 Sur 18 Sur 0 1017.8 0.5 76
2019-06-17 10:00:00 19.9 12 Sur 18 Sur 0 1017.7 0.5 78
2019-06-17 09:00:00 18.5 8 Sudeste 12 Sudeste 0 1017.8 0.7 85
2019-06-17 08:00:00 17.5 7 Sudeste 14 Sudeste 0 1017.3 0.1 90
2019-06-17 07:00:00 17.7 12 Sudeste 16 Sudeste 0 1017.2 -0.3 90
2019-06-17 06:00:00 18.6 8 Sudeste 11 Sudeste 0 1017.1 -0.9 86
2019-06-17 05:00:00 18.2 4 Sudoeste 8 Sudoeste 0 1017.2 -1 83
2019-06-17 04:00:00 18.1 4 Sudoeste 7 Sudoeste 0 1017.5 -1 85
2019-06-17 03:00:00 18.3 3 Sudoeste 6 Sudoeste 0 1018 -0.8 82
2019-06-17 02:00:00 18.4 4 Sudoeste 5 Sudoeste 0 1018.2 -0.3 81
2019-06-17 01:00:00 18.7 2 Sudoeste 7 Sudoeste 0 1018.5 0.7 80
2019-06-17 00:00:00 18.9 4 Sur 8 Sudoeste 0 1018.8 1.1 81
2019-06-16 23:00:00 19 4 Sudoeste 9 Sudoeste 0 1018.5 1.1 81
2019-06-16 22:00:00 19.7 6 Sudoeste 17 Oeste 0 1017.8 0.5 75
2019-06-16 21:00:00 21.9 8 Oeste 17 Oeste 0 1017.7 0.3 68
2019-06-16 20:00:00 21.8 13 Oeste 24 Oeste 0 1017.4 -0.1 67
2019-06-16 19:00:00 21.8 15 Oeste 26 Oeste 0 1017.3 0 62
2019-06-16 18:00:00 22.1 18 Oeste 32 Sudoeste 0 1017.4 -0.2 63
2019-06-16 17:00:00 22.5 21 Oeste 31 Oeste 0 1017.5 -0.7 63
2019-06-16 16:00:00 22.7 17 Sudoeste 28 Sudoeste 0 1017.3 -0.7 64
2019-06-16 15:00:00 22.1 12 Sudoeste 24 Sudoeste 0 1017.6 -0.2 69
2019-06-16 14:00:00 21.3 15 Sur 25 Sur 0 1018.2 1.2 76
2019-06-16 13:00:00 20.9 14 Sur 31 Sur 0 1018 0.7 78
2019-06-16 12:00:00 19.6 18 Sur 30 Sur 0 1017.8 1.1 83
2019-06-16 11:00:00 20.8 16 Sur 25 Sur 0 1017 1.1 78
2019-06-16 10:00:00 20.3 12 Sudeste 21 Sudeste 0 1017.3 1.3 81
2019-06-16 09:00:00 18.3 16 Sudeste 21 Sudeste 0 1016.7 1.3 86
2019-06-16 08:00:00 17.7 14 Sudeste 19 Sudeste 0 1015.9 0.5 89
2019-06-16 07:00:00 17.7 13 Sudeste 16 Sudeste 0 1016 0.1 89
2019-06-16 06:00:00 18.1 11 Sudeste 15 Sudeste 0 1015.4 -0.6 88
2019-06-16 05:00:00 18.6 9 Sudeste 12 Sudeste 0 1015.4 -1.3 85
2019-06-16 04:00:00 18.6 8 Sur 14 Sur 0 1015.9 -1.5 77
2019-06-16 03:00:00 18.3 5 Sur 10 Sudeste 0 1016 -1.3 72
2019-06-16 02:00:00 18.8 7 Sudeste 12 Este 0 1016.7 -0.7 71
2019-06-16 01:00:00 19.9 7 Norte 17 Noroeste 0 1017.4 0.3 72
2019-06-16 00:00:00 19.6 10 Noroeste 28 Noroeste 0 1017.3 -0.1 68